Cedar City, UT

7:01 PM MDT on August 27, 2014 (GMT -0600)
NR7E | Change Station
CLOSE
Current Station
Personal Weather Station
Location: Cedar City, UT
Elevation: 5474 ft
Nearby Weather Stations

Elev 5474 ft 37.77 °N, 113.10 °W | Updated 11 seconds ago

Clear
Clear
75.6 °F
Feels Like 77 °F
N
4.9
Wind Variable Wind from NE
Gusts 5.0 mph

Today
High -- | Low -- °F
--% Chance of Precip.
Yesterday
High -- | Low -- °F
Precip. -- in
6:58 AM 8:08 PM
Waxing Crescent, 5% visible
Pressure 30.06 in
Visibility 10.0 miles
Clouds Clear
Heat Index 77 °F
Dew Point 44 °F
Humidity 33%
Rainfall 0.09 in
Snow Depth 4 in
UV 1 out of 12
Pollen 6.10 out of 12
Air Quality Not available.
Flu Activity Not available.
METAR KCDC 280053Z AUTO 36007KT 10SM CLR 24/04 A3023 RMK AO2 SLP180 T02390039

More Conditions Fewer Conditions

Pressure 30.06 in
Visibility 10.0 miles
Clouds Clear
Heat Index 77 °F
Dew Point 44 °F
Humidity 33%
Rainfall 0.09 in
Snow Depth 4 in
UV 1 out of 12
Pollen 6.10 out of 12
Air Quality Not available.
Flu Activity Not available.
METAR KCDC 280053Z AUTO 36007KT 10SM CLR 24/04 A3023 RMK AO2 SLP180 T02390039

More Conditions Fewer Conditions

10-Day Weather Forecast

Almanac

Astronomy

Aug. 27, 2014 Rise Set
Actual Time 6:58 AM MDT 8:08 PM MDT
Civil Twilight 6:31 AM MDT 8:35 PM MDT
Nautical Twilight 5:59 AM MDT 9:08 PM MDT
Astronomical Twilight 5:25 AM MDT 9:41 PM MDT
Moon 8:55 AM MDT (8/27) 9:06 PM MDT (8/27)
Length of Visible Light 14h 04m
Length of Day
13h 10m
Tomorrow will be 2m 17s shorter.
Waxing Crescent, 5% of the Moon is Illuminated
Today
Waxing Crescent
Sep 2
First Quarter
Sep 8
Full
Sep 15
Last Quarter
Sep 24
New

Today's Extremes

State Highs State Lows

Community

WunderPhotos

Upload Photos

1,747,843 photos uploaded!

Nearby

Snow Depth

Station Depth Elevation
Midway Valley 4 in 9800 ft
Long Valley Jct 0 in 7360 ft
Agua Canyon 3 in 8900 ft
Merchant Valley 0 in 8750 ft
Clayton Springs 0 in 10000 ft

Earthquake Activity

City Distance Mag. Time & Date
No recent earthquake activity has been reported nearby.
Minimum magnitude displayed is 2.5.

Coastal Water Temperatures

Place Temperature
No Stations Reporting

Nearby Weather Stations